createdAt,value
2018-05-04T00:03:54.593Z,96756.64
2018-05-04T00:06:22.355Z,96760.47
2018-05-04T00:08:59.244Z,96756.23
2018-05-04T00:14:03.961Z,96751.13
2018-05-04T00:16:31.752Z,96753.70
2018-05-04T00:18:59.533Z,96754.98
2018-05-04T00:21:37.021Z,96762.23
2018-05-04T00:26:43.506Z,96767.81
2018-05-04T00:29:11.268Z,96769.94
2018-05-04T00:31:39.095Z,96771.66
2018-05-04T00:34:16.630Z,96771.65
2018-05-04T00:36:44.550Z,96772.09
2018-05-04T00:39:12.348Z,96765.31
2018-05-04T00:41:40.231Z,96774.26
2018-05-04T00:44:17.391Z,96778.09
2018-05-04T00:49:22.658Z,96780.23
2018-05-04T00:51:50.532Z,96777.70
2018-05-04T00:54:24.348Z,96781.12
2018-05-04T00:56:57.152Z,96780.28
2018-05-04T01:02:02.699Z,96775.20
2018-05-04T01:04:30.504Z,96786.25
2018-05-04T01:06:58.379Z,96785.00
2018-05-04T01:09:28.464Z,96784.17
2018-05-04T01:11:58.594Z,96782.50
2018-05-04T01:14:27.289Z,96782.10
2018-05-04T01:16:56.006Z,96782.09
2018-05-04T01:19:24.162Z,96784.25
2018-05-04T01:21:52.421Z,96780.87
2018-05-04T01:24:20.816Z,96781.73
2018-05-04T01:26:49.095Z,96790.23
2018-05-04T01:29:18.210Z,96794.49
2018-05-04T01:31:48.147Z,96791.08
2018-05-04T01:34:17.431Z,96797.42
2018-05-04T01:36:47.624Z,96794.02
2018-05-04T01:39:16.445Z,96799.56
2018-05-04T01:41:44.708Z,96802.50
2018-05-04T01:44:13.952Z,96806.80
2018-05-04T01:46:43.019Z,96806.80
2018-05-04T01:49:12.272Z,96809.77
2018-05-04T01:51:40.817Z,96807.64
2018-05-04T01:54:08.960Z,96805.13
2018-05-04T01:56:37.975Z,96804.27
2018-05-04T01:59:07.203Z,96801.70
2018-05-04T02:01:36.595Z,96803.00
2018-05-04T02:17:05.677Z,96809.05
2018-05-04T02:19:33.908Z,96815.86
2018-05-04T02:22:02.966Z,96815.43
2018-05-04T02:24:32.815Z,96825.23
2018-05-04T02:27:03.506Z,96826.52
2018-05-04T02:29:31.468Z,96816.75
2018-05-04T02:32:00.475Z,96819.75
2018-05-04T02:34:30.372Z,96814.22
2018-05-04T02:36:59.771Z,96814.64
2018-05-04T02:39:28.914Z,96816.78
2018-05-04T02:41:58.110Z,96827.83
2018-05-04T02:44:27.569Z,96818.50
2018-05-04T02:46:55.909Z,96812.56
2018-05-04T02:49:24.362Z,96818.09
2018-05-04T02:51:53.493Z,96816.81
2018-05-04T02:54:22.537Z,96823.19
2018-05-04T02:56:52.788Z,96827.45
2018-05-04T02:59:21.122Z,96825.32
2018-05-04T03:01:51.157Z,96820.22
2018-05-04T03:04:21.322Z,96828.72
2018-05-04T03:06:50.527Z,96833.38
2018-05-04T03:09:20.702Z,96836.36
2018-05-04T03:11:49.828Z,96834.66
2018-05-04T03:14:18.424Z,96836.77
2018-05-04T03:16:46.916Z,96838.48
2018-05-04T03:19:15.168Z,96848.23
2018-05-04T03:21:43.671Z,96843.55
2018-05-04T03:24:13.089Z,96840.14
2018-05-04T03:26:41.324Z,96842.30
2018-05-04T03:29:10.979Z,96842.73
2018-05-04T03:31:40.262Z,96840.59
2018-05-04T03:34:08.652Z,96838.91
2018-05-04T03:36:37.136Z,96841.89
2018-05-04T03:39:07.153Z,96846.55
2018-05-04T03:41:36.358Z,96850.38
2018-05-04T03:44:08.012Z,96845.30
2018-05-04T03:46:37.209Z,96847.86
2018-05-04T03:49:06.437Z,96848.72
2018-05-04T03:51:35.632Z,96839.80
2018-05-04T03:54:04.823Z,96852.95
2018-05-04T03:56:35.270Z,96855.52
2018-05-04T03:59:15.293Z,96853.83
2018-05-04T04:26:31.043Z,96860.18
2018-05-04T04:29:00.083Z,96866.55
2018-05-04T04:31:29.320Z,96867.81
2018-05-04T04:33:58.252Z,96872.50
2018-05-04T04:36:27.503Z,96870.39
2018-05-04T04:38:55.990Z,96868.24
2018-05-04T04:41:26.439Z,96872.06
2018-05-04T04:43:55.782Z,96872.91
2018-05-04T04:46:24.917Z,96876.73
2018-05-04T04:48:53.980Z,96886.08
2018-05-04T04:51:23.304Z,96881.39
2018-05-04T04:53:52.725Z,96878.42
2018-05-04T04:56:22.805Z,96886.48
2018-05-04T04:58:53.039Z,96889.02
2018-05-04T05:01:21.579Z,96893.69
2018-05-04T05:03:50.751Z,96908.53
2018-05-04T05:06:19.359Z,96909.41
2018-05-04T05:08:47.836Z,96908.95
2018-05-04T05:11:17.835Z,96914.50
2018-05-04T05:13:47.817Z,96912.35
2018-05-04T05:16:24.209Z,96916.19
2018-05-04T05:18:52.644Z,96920.42
2018-05-04T05:21:21.114Z,96915.73
2018-05-04T05:23:50.202Z,96918.27
2018-05-04T05:26:20.232Z,96920.36
2018-05-04T05:28:50.216Z,96920.38
2018-05-04T05:31:19.005Z,96929.28
2018-05-04T05:33:47.393Z,96926.71
2018-05-04T05:36:16.460Z,96918.20
2018-05-04T05:38:45.117Z,96922.88
2018-05-04T05:41:14.393Z,96921.55
2018-05-04T05:43:43.666Z,96923.22
2018-05-04T05:46:12.300Z,96918.11
2018-05-04T05:48:41.488Z,96921.88
2018-05-04T05:51:11.301Z,96919.73
2018-05-04T05:53:41.310Z,96923.52
2018-05-04T05:56:11.609Z,96913.71
2018-05-04T05:58:41.003Z,96912.40
2018-05-04T06:01:09.936Z,96911.11
2018-05-04T06:03:39.172Z,96908.99
2018-05-04T06:06:09.149Z,96924.26
2018-05-04T06:08:37.637Z,96925.04
2018-05-04T06:11:06.737Z,96926.69
2018-05-04T06:13:36.552Z,96919.41
2018-05-04T06:16:05.241Z,96930.83
2018-05-04T06:18:34.045Z,96930.00
2018-05-04T06:21:02.785Z,96934.27
2018-05-04T06:23:31.419Z,96937.61
2018-05-04T06:26:00.096Z,96945.23
2018-05-04T06:28:29.423Z,96937.11
2018-05-04T06:30:58.994Z,96952.39
2018-05-04T06:33:28.062Z,96935.77
2018-05-04T06:35:56.488Z,96937.36
2018-05-04T06:38:25.901Z,96933.90
2018-05-04T06:40:55.116Z,96936.84
2018-05-04T06:43:23.506Z,96937.27
2018-05-04T06:45:52.996Z,96943.64
2018-05-04T06:48:22.101Z,96943.09
2018-05-04T06:50:50.550Z,96940.43
2018-05-04T06:53:20.442Z,96947.22
2018-05-04T06:55:48.861Z,96938.63
2018-05-04T06:58:17.991Z,96940.69
2018-05-04T07:00:47.175Z,96935.53
2018-05-04T07:03:16.357Z,96941.42
2018-05-04T07:05:45.357Z,96945.60
2018-05-04T07:08:14.202Z,96942.14
2018-05-04T07:10:49.793Z,96943.89
2018-05-04T07:13:19.983Z,96943.45
2018-05-04T07:15:48.436Z,96941.81
2018-05-04T07:18:17.024Z,96940.89
2018-05-04T07:20:46.421Z,96945.18
2018-05-04T07:23:15.919Z,96941.30
2018-05-04T07:25:45.013Z,96944.62
2018-05-04T07:28:14.133Z,96944.09
2018-05-04T07:30:42.931Z,96948.24
2018-05-04T07:33:11.571Z,96940.97
2018-05-04T07:35:42.983Z,96942.10
2018-05-04T07:38:11.856Z,96941.55
2018-05-04T07:40:41.025Z,96949.53
2018-05-04T07:43:11.136Z,96940.11
2018-05-04T07:45:40.257Z,96938.75
2018-05-04T07:48:09.266Z,96940.73
2018-05-04T07:50:38.281Z,96942.73
2018-05-04T07:53:06.728Z,96947.78
2018-05-04T07:55:39.010Z,96940.92
2018-05-04T07:58:07.620Z,96945.08
2018-05-04T08:00:36.643Z,96944.87
2018-05-04T08:03:05.402Z,96944.02
2018-05-04T08:05:35.316Z,96942.26
2018-05-04T08:08:04.474Z,96938.47
2018-05-04T08:10:33.739Z,96941.71
2018-05-04T08:13:02.712Z,96943.82
2018-05-04T08:15:31.203Z,96944.70
2018-05-04T08:17:59.725Z,96945.80
2018-05-04T08:20:28.991Z,96943.17
2018-05-04T08:22:58.299Z,96949.00
2018-05-04T08:25:27.527Z,96953.13
2018-05-04T08:27:56.465Z,96958.51
2018-05-04T08:30:25.578Z,96950.44
2018-05-04T08:32:53.697Z,96946.12
2018-05-04T08:35:22.363Z,96943.30
2018-05-04T08:37:50.842Z,96945.34
2018-05-04T08:40:19.550Z,96948.97
2018-05-04T08:42:47.386Z,96954.64
2018-05-04T08:45:15.759Z,96945.41
2018-05-04T08:47:45.109Z,96950.47
2018-05-04T08:50:13.998Z,96944.13
2018-05-04T08:52:43.197Z,96944.67
2018-05-04T08:55:12.709Z,96965.22
2018-05-04T08:57:41.819Z,96947.09
2018-05-04T09:00:12.598Z,96939.77
2018-05-04T09:02:41.129Z,96942.76
2018-05-04T09:05:09.647Z,96945.72
2018-05-04T09:07:38.729Z,96951.05
2018-05-04T09:10:07.777Z,96944.24
2018-05-04T09:12:36.889Z,96947.00
2018-05-04T09:15:05.234Z,96952.66
2018-05-04T09:17:34.450Z,96948.00
2018-05-04T09:20:03.552Z,96942.95
2018-05-04T09:22:36.429Z,96950.36
2018-05-04T09:25:07.300Z,96947.11
2018-05-04T09:27:37.868Z,96952.59
2018-05-04T09:30:07.036Z,96952.91
2018-05-04T09:32:36.499Z,96953.02
2018-05-04T09:35:04.849Z,96955.11
2018-05-04T09:37:34.096Z,96952.93
2018-05-04T09:40:03.108Z,96955.70
2018-05-04T09:42:32.337Z,96960.16
2018-05-04T09:45:00.736Z,96950.48
2018-05-04T09:47:31.053Z,96953.02
2018-05-04T09:50:01.050Z,96953.35
2018-05-04T09:52:32.808Z,96953.53
2018-05-04T09:55:01.116Z,96957.15
2018-05-04T09:57:30.211Z,96950.15
2018-05-04T09:59:59.306Z,96945.05
2018-05-04T10:02:29.385Z,96950.44
2018-05-04T10:04:58.660Z,96952.72
2018-05-04T10:07:28.774Z,96950.35
2018-05-04T10:09:57.954Z,96949.97
2018-05-04T10:12:26.203Z,96945.34
2018-05-04T10:14:55.512Z,96944.80
2018-05-04T10:17:23.902Z,96941.75
2018-05-04T10:19:52.990Z,96943.95
2018-05-04T10:22:22.196Z,96943.52
2018-05-04T10:24:54.857Z,96946.98
2018-05-04T10:27:23.486Z,96944.42
2018-05-04T10:29:54.121Z,96943.09
2018-05-04T10:32:22.723Z,96942.45
2018-05-04T10:34:51.305Z,96939.33
2018-05-04T10:37:19.537Z,96941.09
2018-05-04T10:39:48.994Z,96940.08
2018-05-04T10:42:20.626Z,96931.87
2018-05-04T10:44:49.488Z,96923.22
2018-05-04T10:47:19.031Z,96926.97
2018-05-04T10:49:48.264Z,96934.80
2018-05-04T10:52:17.523Z,96929.14
2018-05-04T10:54:47.923Z,96929.21
2018-05-04T10:57:16.577Z,96930.06
2018-05-04T10:59:45.639Z,96937.08
2018-05-04T11:02:16.047Z,96932.72
2018-05-04T11:04:45.097Z,96932.57
2018-05-04T11:07:13.567Z,96920.46
2018-05-04T11:09:43.692Z,96923.80
2018-05-04T11:12:14.953Z,96930.20
2018-05-04T11:14:44.356Z,96928.84
2018-05-04T11:17:13.306Z,96919.73
2018-05-04T11:19:42.634Z,96921.76
2018-05-04T11:22:11.132Z,96924.98
2018-05-04T11:24:39.735Z,96927.66
2018-05-04T11:27:08.922Z,96927.25
2018-05-04T11:29:38.117Z,96925.94
2018-05-04T11:32:07.113Z,96923.00
2018-05-04T11:34:36.271Z,96928.19
2018-05-04T11:37:05.041Z,96934.42
2018-05-04T11:39:35.814Z,96921.99
2018-05-04T11:42:04.190Z,96927.35
2018-05-04T11:44:33.657Z,96920.55
2018-05-04T11:47:02.940Z,96923.04
2018-05-04T11:49:32.556Z,96924.27
2018-05-04T11:52:01.135Z,96926.52
2018-05-04T11:54:29.557Z,96916.30
2018-05-04T11:56:58.315Z,96917.69
2018-05-04T11:59:26.672Z,96933.47
2018-05-04T12:01:56.000Z,96933.34
2018-05-04T12:04:26.758Z,96929.42
2018-05-04T12:06:55.846Z,96922.52
2018-05-04T12:09:24.586Z,96928.03
2018-05-04T12:11:54.585Z,96933.11
2018-05-04T12:14:23.952Z,96926.77
2018-05-04T12:16:53.901Z,96928.57
2018-05-04T12:19:23.419Z,96927.06
2018-05-04T12:21:52.581Z,96920.17
2018-05-04T12:24:21.037Z,96922.41
2018-05-04T12:26:49.136Z,96920.39
2018-05-04T12:29:17.751Z,96919.29
2018-05-04T12:31:46.168Z,96917.42
2018-05-04T12:34:15.185Z,96925.88
2018-05-04T12:36:43.626Z,96919.58
2018-05-04T12:39:13.545Z,96917.45
2018-05-04T12:41:42.698Z,96911.97
2018-05-04T12:44:11.795Z,96915.73
2018-05-04T12:46:40.913Z,96914.73
2018-05-04T12:49:10.054Z,96916.14
2018-05-04T12:51:40.941Z,96908.91
2018-05-04T12:54:10.090Z,96906.45
2018-05-04T12:56:38.682Z,96909.47
2018-05-04T12:59:08.776Z,96905.08
2018-05-04T13:01:37.966Z,96903.44
2018-05-04T13:04:07.163Z,96907.37
2018-05-04T13:06:36.162Z,96898.84
2018-05-04T13:09:05.855Z,96898.16
2018-05-04T13:11:35.629Z,96895.49
2018-05-04T13:14:05.631Z,96882.91
2018-05-04T13:16:33.995Z,96888.01
2018-05-04T13:19:03.312Z,96888.02
2018-05-04T13:21:33.494Z,96884.59
2018-05-04T13:24:02.127Z,96877.59
2018-05-04T13:26:31.519Z,96880.16
2018-05-04T13:29:00.623Z,96875.19
2018-05-04T13:31:30.146Z,96873.36
2018-05-04T13:33:59.234Z,96867.08
2018-05-04T13:36:28.284Z,96863.52
2018-05-04T13:38:57.306Z,96871.30
2018-05-04T13:41:26.764Z,96866.75
2018-05-04T13:43:58.611Z,96868.58
2018-05-04T13:46:27.792Z,96868.31
2018-05-04T13:48:58.067Z,96858.23
2018-05-04T13:51:26.658Z,96851.48
2018-05-04T13:53:56.635Z,96857.91
2018-05-04T13:56:27.252Z,96848.59
2018-05-04T13:58:55.950Z,96853.80
2018-05-04T14:01:25.159Z,96850.92
2018-05-04T14:03:54.133Z,96855.27
2018-05-04T14:06:23.269Z,96846.45
2018-05-04T14:08:51.723Z,96849.88
2018-05-04T14:11:21.132Z,96851.94
2018-05-04T14:13:50.831Z,96849.17
2018-05-04T14:16:20.359Z,96849.25
2018-05-04T14:18:49.604Z,96844.93
2018-05-04T14:21:19.898Z,96845.38
2018-05-04T14:23:51.139Z,96850.64
2018-05-04T14:26:19.715Z,96845.75
2018-05-04T14:28:48.832Z,96848.21
2018-05-04T14:31:18.334Z,96851.16
2018-05-04T14:33:47.647Z,96855.16
2018-05-04T14:36:16.630Z,96848.30
2018-05-04T14:38:46.607Z,96846.96
2018-05-04T14:41:15.682Z,96844.77
2018-05-04T14:43:44.254Z,96841.27
2018-05-04T14:46:12.646Z,96846.29
2018-05-04T14:48:43.707Z,96835.56
2018-05-04T14:51:14.193Z,96840.95
2018-05-04T14:53:43.667Z,96845.60
2018-05-04T14:56:13.800Z,96844.34
2018-05-04T14:58:43.503Z,96843.10
2018-05-04T15:01:12.637Z,96847.57
2018-05-04T15:03:43.681Z,96842.84
2018-05-04T15:06:11.811Z,96837.26
2018-05-04T15:08:40.627Z,96839.20
2018-05-04T15:11:09.764Z,96838.17
2018-05-04T15:13:38.951Z,96851.69
2018-05-04T15:16:07.246Z,96845.90
2018-05-04T15:18:35.704Z,96849.60
2018-05-04T15:21:06.427Z,96849.72
2018-05-04T15:23:36.602Z,96846.10
2018-05-04T15:26:05.653Z,96840.28
2018-05-04T15:28:35.711Z,96849.77
2018-05-04T15:31:04.183Z,96838.64
2018-05-04T15:33:34.902Z,96844.27
2018-05-04T15:36:05.099Z,96848.07
2018-05-04T15:38:36.282Z,96846.72
2018-05-04T15:41:05.684Z,96843.02
2018-05-04T15:43:34.974Z,96847.50
2018-05-04T15:46:04.304Z,96846.77
2018-05-04T15:48:38.173Z,96846.28
2018-05-04T15:51:11.772Z,96853.18
2018-05-04T15:53:40.825Z,96853.09
2018-05-04T15:56:10.179Z,96854.42
2018-05-04T15:58:38.816Z,96855.70
2018-05-04T16:01:07.188Z,96859.58
2018-05-04T16:03:36.371Z,96862.94
2018-05-04T16:06:04.883Z,96871.25
2018-05-04T16:08:34.358Z,96861.72
2018-05-04T16:11:03.496Z,96870.02
2018-05-04T16:13:32.616Z,96876.37
2018-05-04T16:16:02.750Z,96874.94
2018-05-04T16:18:31.236Z,96881.30
2018-05-04T16:20:59.773Z,96880.77
2018-05-04T16:23:28.974Z,96876.16
2018-05-04T16:25:57.814Z,96883.39
2018-05-04T16:28:27.272Z,96890.75
2018-05-04T16:30:56.822Z,96890.28
2018-05-04T16:33:25.273Z,96891.84
2018-05-04T16:35:53.741Z,96890.37
2018-05-04T16:38:22.868Z,96899.52
2018-05-04T16:40:51.498Z,96897.44
2018-05-04T16:43:19.842Z,96901.44
2018-05-04T16:45:49.479Z,96908.57
2018-05-04T16:48:24.262Z,96910.30
2018-05-04T16:50:53.223Z,96915.95
2018-05-04T16:53:22.776Z,96915.08
2018-05-04T16:55:53.205Z,96913.66
2018-05-04T16:58:24.324Z,96915.39
2018-05-04T17:00:52.927Z,96925.35
2018-05-04T17:03:21.950Z,96921.53
2018-05-04T17:05:51.437Z,96923.25
2018-05-04T17:08:20.338Z,96924.61
2018-05-04T17:10:49.437Z,96935.13
2018-05-04T17:13:18.775Z,96927.95
2018-05-04T17:15:47.930Z,96932.52
2018-05-04T17:18:16.505Z,96937.23
2018-05-04T17:20:45.734Z,96944.48
2018-05-04T17:23:15.306Z,96937.94
2018-05-04T17:25:43.858Z,96941.38
2018-05-04T17:28:13.809Z,96939.33
2018-05-04T17:30:43.281Z,96938.48
2018-05-04T17:33:12.235Z,96937.23
2018-05-04T17:35:41.222Z,96953.80
2018-05-04T17:38:10.264Z,96941.42
2018-05-04T17:40:38.944Z,96941.86
2018-05-04T17:43:07.372Z,96946.16
2018-05-04T17:45:35.794Z,96943.27
2018-05-04T17:48:05.219Z,96946.85
2018-05-04T17:50:35.197Z,96951.68
2018-05-04T17:53:04.437Z,96950.13
2018-05-04T17:55:33.214Z,96949.84
2018-05-04T17:58:03.343Z,96951.56
2018-05-04T18:00:33.331Z,96951.23
2018-05-04T18:03:02.019Z,96953.00
2018-05-04T18:05:31.396Z,96951.39
2018-05-04T18:08:02.396Z,96954.94
2018-05-04T18:10:32.689Z,96962.39
2018-05-04T18:13:02.709Z,96970.20
2018-05-04T18:15:31.621Z,96974.09
2018-05-04T18:18:01.887Z,96971.22
2018-05-04T18:20:31.098Z,96976.48
2018-05-04T18:22:59.770Z,96981.39
2018-05-04T18:25:28.938Z,96981.05
2018-05-04T18:27:58.959Z,96986.73
2018-05-04T18:30:27.243Z,96998.84
2018-05-04T18:32:55.948Z,96997.27
2018-05-04T18:35:25.374Z,97005.08
2018-05-04T18:37:54.324Z,97007.70
2018-05-04T18:40:22.804Z,97006.11
2018-05-04T18:42:52.830Z,97005.82
2018-05-04T18:45:21.215Z,97013.25
2018-05-04T18:47:49.750Z,97021.91
2018-05-04T18:50:19.029Z,97023.30
2018-05-04T18:52:47.453Z,97023.85
2018-05-04T18:55:15.946Z,97028.22
2018-05-04T18:57:47.234Z,97030.41
2018-05-04T19:00:17.451Z,97031.27
2018-05-04T19:02:51.915Z,97030.03
2018-05-04T19:05:20.963Z,97030.54
2018-05-04T19:07:50.103Z,97034.48
2018-05-04T19:10:19.240Z,97032.85
2018-05-04T19:12:48.672Z,97041.91
2018-05-04T19:15:17.906Z,97044.56
2018-05-04T19:17:46.362Z,97045.06
2018-05-04T19:20:15.294Z,97047.63
2018-05-04T19:22:44.338Z,97059.25
2018-05-04T19:25:15.211Z,97052.94
2018-05-04T19:27:44.301Z,97056.49
2018-05-04T19:30:13.303Z,97054.86
2018-05-04T19:32:42.713Z,97062.72
2018-05-04T19:35:13.431Z,97068.83
2018-05-04T19:37:41.880Z,97067.66
2018-05-04T19:40:12.268Z,97077.95
2018-05-04T19:42:41.860Z,97072.91
2018-05-04T19:45:12.291Z,97075.98
2018-05-04T19:47:41.894Z,97076.88
2018-05-04T19:50:11.444Z,97088.52
2018-05-04T19:52:39.915Z,97091.13
2018-05-04T19:55:09.332Z,97092.02
2018-05-04T19:57:38.820Z,97085.66
2018-05-04T20:00:08.003Z,97083.52
2018-05-04T20:02:36.388Z,97084.38
2018-05-04T20:05:05.723Z,97087.34
2018-05-04T20:07:35.004Z,97088.66
2018-05-04T20:10:03.669Z,97086.19
2018-05-04T20:12:32.465Z,97088.41
2018-05-04T20:15:00.866Z,97091.90
2018-05-04T20:17:30.803Z,97093.25
2018-05-04T20:19:59.894Z,97093.71
2018-05-04T20:22:28.695Z,97092.92
2018-05-04T20:24:57.767Z,97092.09
2018-05-04T20:27:26.024Z,97096.41
2018-05-04T20:29:54.823Z,97095.09
2018-05-04T20:32:23.357Z,97088.28
2018-05-04T20:34:51.831Z,97092.59
2018-05-04T20:37:20.996Z,97086.67
2018-05-04T20:39:50.329Z,97084.09
2018-05-04T20:42:19.401Z,97092.23
2018-05-04T20:44:49.459Z,97086.27
2018-05-04T20:47:18.767Z,97089.70
2018-05-04T20:49:47.599Z,97094.44
2018-05-04T20:52:15.980Z,97097.53
2018-05-04T20:54:45.041Z,97098.88
2018-05-04T20:57:15.458Z,97093.44
2018-05-04T20:59:44.305Z,97097.84
2018-05-04T21:02:12.846Z,97109.89
2018-05-04T21:04:41.839Z,97113.34
2018-05-04T21:07:11.541Z,97112.09
2018-05-04T21:09:40.322Z,97111.26
2018-05-04T21:12:08.481Z,97112.14
2018-05-04T21:14:36.683Z,97112.23
2018-05-04T21:17:04.976Z,97110.55
2018-05-04T21:19:33.041Z,97119.59
2018-05-04T21:22:02.146Z,97123.89
2018-05-04T21:24:31.757Z,97120.50
2018-05-04T21:27:00.410Z,97128.23
2018-05-04T21:29:29.854Z,97128.29
2018-05-04T21:32:00.692Z,97125.29
2018-05-04T21:34:29.679Z,97134.30
2018-05-04T21:36:58.959Z,97127.48
2018-05-04T21:39:28.309Z,97126.26
2018-05-04T21:41:57.529Z,97129.70
2018-05-04T21:44:26.699Z,97119.07
2018-05-04T21:46:55.908Z,97123.77
2018-05-04T21:49:25.114Z,97123.38
2018-05-04T21:51:53.585Z,97130.70
2018-05-04T21:54:22.893Z,97128.15
2018-05-04T21:56:52.519Z,97127.72
2018-05-04T21:59:20.849Z,97140.16
2018-05-04T22:01:50.047Z,97146.14
2018-05-04T22:04:19.382Z,97150.84
2018-05-04T22:06:47.870Z,97154.74
2018-05-04T22:09:16.903Z,97158.16
2018-05-04T22:11:46.676Z,97151.83
2018-05-04T22:14:14.994Z,97144.14
2018-05-04T22:16:44.269Z,97142.08
2018-05-04T22:19:14.087Z,97145.59
2018-05-04T22:21:43.880Z,97148.23
2018-05-04T22:24:12.047Z,97145.28
2018-05-04T22:26:41.865Z,97140.25
2018-05-04T22:29:10.681Z,97138.61
2018-05-04T22:31:39.476Z,97144.20
2018-05-04T22:34:07.761Z,97141.28
2018-05-04T22:36:39.095Z,97144.74
2018-05-04T22:39:08.079Z,97147.34
2018-05-04T22:41:38.060Z,97143.14
2018-05-04T22:44:07.007Z,97144.87
2018-05-04T22:46:36.224Z,97146.64
2018-05-04T22:49:05.232Z,97140.28
2018-05-04T22:51:33.602Z,97134.35
2018-05-04T22:54:02.097Z,97136.53
2018-05-04T22:56:30.508Z,97136.57
2018-05-04T22:59:00.653Z,97135.30
2018-05-04T23:01:30.587Z,97135.77
2018-05-04T23:04:01.461Z,97139.67
2018-05-04T23:06:30.867Z,97135.41
2018-05-04T23:09:00.881Z,97141.03
2018-05-04T23:11:28.945Z,97147.03
2018-05-04T23:13:59.174Z,97153.48
2018-05-04T23:16:29.299Z,97148.45
2018-05-04T23:19:00.079Z,97148.45
2018-05-04T23:21:28.561Z,97152.83
2018-05-04T23:23:57.922Z,97149.87
2018-05-04T23:26:27.127Z,97156.30
2018-05-04T23:28:55.487Z,97155.91
2018-05-04T23:31:24.573Z,97159.32
2018-05-04T23:33:52.433Z,97155.50
2018-05-04T23:36:20.651Z,97167.03
2018-05-04T23:38:49.239Z,97164.95
2018-05-04T23:41:17.563Z,97164.09
2018-05-04T23:43:45.601Z,97164.14
2018-05-04T23:46:14.598Z,97159.48
2018-05-04T23:48:42.412Z,97161.62
2018-05-04T23:51:12.408Z,97166.77
2018-05-04T23:53:41.838Z,97171.92
2018-05-04T23:56:10.644Z,97166.83
2018-05-04T23:58:39.186Z,97167.69
